Tiempo atmosférico en la estación meteorológica de La Roda de Andalucía, Sevilla (410 m.)



Fecha
DESCASC
Temp. máxima en grados centígrados (hora)
DESCASC
Temp. mínima en grados centígrados (hora)
DESCASC
Temp. media en grados centígrados
DESCASC
Racha de viento máxima en m/sg (hora)
DESCASC
Velocidad máxima media en intervalos de 10 minutos(hora)
DESCASC
Precipitaciones diarias en mm
DESCASC
Precipitaciones de 00:00 a 06:00 en mm
DESCASC
Precipitaciones de 06:00 a 12:00 en mm
DESCASC
Precipitaciones de 12:00 a 18:00 en mm
DESCASC
Precipitaciones de 18:00 a 24:00 en mm
DESCASC
21-07-2019 -- (--) -- (--) -- -- (--) -- (--) -- -- -- -- --
20-07-2019 -- (--) -- (--) -- -- (--) -- (--) -- -- -- -- --
19-07-2019 -- (--) -- (--) -- -- (--) -- (--) -- -- -- -- --

Gráficas

Temp. máximas Temp. mínimas Temp. medias Precipitaciones Rachas de viento máximas Velocidades máximas media en intervalos de 10 minutos

Datos horarios

Fecha y hora oficial Temperatura (ºC) Velocidad del viento (km/h) Dirección del viento Racha (km/h) Dirección de racha Precipitación (mm) Presión (hPa) Tendencia (hPa) Humedad (%)
2019-07-26 02:00:00 -- -- -- -- -- -- -- -- --
2019-07-26 01:00:00 -- -- -- -- -- -- -- -- --
2019-07-26 00:00:00 -- -- -- -- -- -- -- -- --
2019-07-25 23:00:00 -- -- -- -- -- -- -- -- --
2019-07-25 22:00:00 -- -- -- -- -- -- -- -- --
2019-07-25 21:00:00 -- -- -- -- -- -- -- -- --
2019-07-25 20:00:00 -- -- -- -- -- -- -- -- --
2019-07-25 19:00:00 -- -- -- -- -- -- -- -- --
2019-07-25 18:00:00 -- -- -- -- -- -- -- -- --
2019-07-25 17:00:00 -- -- -- -- -- -- -- -- --
2019-07-25 16:00:00 -- -- -- -- -- -- -- -- --
2019-07-25 15:00:00 -- -- -- -- -- -- -- -- --
2019-07-25 14:00:00 -- -- -- -- -- -- -- -- --
2019-07-25 13:00:00 -- -- -- -- -- -- -- -- --
2019-07-25 12:00:00 -- -- -- -- -- -- -- -- --
2019-07-25 11:00:00 28.9 5 Nordeste 13 Nordeste 0 967.2 0.2 39
2019-07-25 10:00:00 26.5 3 Norte 6 Norte 0 967.4 0.6 48
2019-07-25 09:00:00 22.8 2 Sur 9 Sur 0 967.3 0.8 64
2019-07-25 08:00:00 19.1 3 Sur 8 Sur 0 967 0.2 68
2019-07-25 07:00:00 18.7 6 Sur 8 Sur 0 966.8 0 68
2019-07-25 06:00:00 19.3 3 Sur 8 Sur 0 966.5 -0.3 65
2019-07-25 05:00:00 20.5 3 Sur 6 Sudoeste 0 966.8 -0.2 53
2019-07-25 04:00:00 23.1 5 Sudoeste 17 Sudoeste 0 966.8 0.1 43
2019-07-25 03:00:00 24.4 8 Sudoeste 16 Sudoeste 0 966.8 -0.1 40
2019-07-25 02:00:00 26.2 8 Sudoeste 23 Sudoeste 0 967 0.5 33
2019-07-25 01:00:00 26.3 13 Sudoeste 22 Sudoeste 0 966.7 0.9 33
2019-07-25 00:00:00 27 12 Sudoeste 24 Sudoeste 0 966.9 1.9 32
2019-07-24 23:00:00 27.6 12 Sur 21 Sudoeste 0 966.5 1.6 31
2019-07-24 22:00:00 29.9 8 Sur 30 Sur 0 965.8 0.9 25
2019-07-24 21:00:00 32.7 15 Sur 31 Sur 0 965 -0.2 20
2019-07-24 20:00:00 34.5 18 Sur 35 Sur 0 964.9 -0.9 17
2019-07-24 19:00:00 36.1 20 Sur 35 Sur 0 964.9 -1.3 14
2019-07-24 18:00:00 36.8 21 Sur 38 Sur 0 965.2 -1.3 14
2019-07-24 17:00:00 37.9 19 Sur 38 Sur 0 965.8 -1.1 13
2019-07-24 16:00:00 37.6 16 Sur 33 Sur 0 966.2 -1 14
2019-07-24 15:00:00 37 16 Sur 33 Sudoeste 0 966.5 -0.9 16
2019-07-24 14:00:00 36 13 Sur 30 Sur 0 966.9 -0.7 19
2019-07-24 13:00:00 35.1 13 Sur 28 Sudoeste 0 967.2 -0.3 20
2019-07-24 12:00:00 33.2 8 Sudeste 21 Sudoeste 0 967.4 0 21
2019-07-24 11:00:00 30.4 7 Sur 15 Sur 0 967.6 0.5 32
2019-07-24 10:00:00 27.2 9 Sur 15 Sur 0 967.5 0.5 44
2019-07-24 09:00:00 23.8 8 Sur 15 Sur 0 967.4 0.4 49
2019-07-24 08:00:00 20.2 8 Sur 12 Sur 0 967.1 -0.2 59
2019-07-24 07:00:00 18.8 6 Sur 9 Sur 0 967 -0.9 57
2019-07-24 06:00:00 19.1 3 Sudoeste 8 Sur 0 967 -1.1 56
2019-07-24 05:00:00 19.6 5 Sur 9 Sur 0 967.3 -0.6 52
2019-07-24 04:00:00 20.7 4 Oeste 10 Sur 0 967.9 -0.3 48
2019-07-24 03:00:00 22.1 5 Sur 8 Sur 0 968.1 0.1 41
2019-07-24 02:00:00 24.8 5 Sur 14 Sudoeste 0 967.9 0.4 34
2019-07-24 01:00:00 25.4 6 Sudoeste 21 Sudoeste 0 968.2 1.7 32
2019-07-24 00:00:00 27.2 8 Sudoeste 23 Sudoeste 0 968 2 28
2019-07-23 23:00:00 28.3 7 Sudoeste 28 Sudoeste 0 967.5 1.6 24
2019-07-23 22:00:00 30 16 Sudoeste 33 Sudoeste 0 966.5 0.4 21
2019-07-23 21:00:00 32.4 17 Sudoeste 30 Sudoeste 0 966 -0.3 17
2019-07-23 20:00:00 34.4 19 Sudoeste 38 Sur 0 965.9 -0.7 14
2019-07-23 19:00:00 36.5 22 Sur 38 Sur 0 966.1 -0.7 13
2019-07-23 18:00:00 37.3 20 Sur 44 Sur 0 966.3 -0.9 13
2019-07-23 17:00:00 37.5 23 Sur 42 Sur 0 966.6 -0.9 14
2019-07-23 16:00:00 37.8 20 Sur 34 Sur 0 966.8 -1 16
2019-07-23 15:00:00 37.1 19 Sur 41 Sur 0 967.2 -0.8 18
2019-07-23 14:00:00 36 17 Sur 33 Sur 0 967.5 -0.8 22
2019-07-23 13:00:00 34.3 8 Sur 24 Sudoeste 0 967.8 -0.7 26
2019-07-23 12:00:00 32.2 10 Sur 22 Sur 0 968 -0.7 30
2019-07-23 11:00:00 30 12 Sur 23 Sur 0 968.3 -0.2 35
2019-07-23 10:00:00 27.5 10 Sur 23 Sur 0 968.5 0.3 43
2019-07-23 09:00:00 23.9 6 Sur 14 Sur 0 968.7 0.8 58
2019-07-23 08:00:00 20.5 4 Sur 8 Sur 0 968.5 0.5 71
2019-07-23 07:00:00 20.5 4 Sudeste 9 Sudoeste 0 968.2 -0.2 74
2019-07-23 06:00:00 20.6 3 Noroeste 9 Sudeste 0 967.9 -0.1 71
2019-07-23 05:00:00 21.4 5 Sur 11 Oeste 0 968 -0.4 72
2019-07-23 04:00:00 22.6 8 Oeste 16 Oeste 0 968.4 -0.8 72
2019-07-23 03:00:00 23.1 5 Sudoeste 16 Sudoeste 0 968 -1.5 69
2019-07-23 02:00:00 23.5 7 Sudoeste 22 Sur 0 968.4 -0.5 67
2019-07-23 01:00:00 23.7 5 Sudoeste 24 Sur 0 969.2 1.4 67
2019-07-23 00:00:00 24 11 Sur 35 Sur 0 969.5 2.5 67
2019-07-22 23:00:00 24.8 19 Sur 36 Sur 0 968.9 2.5 64
2019-07-22 22:00:00 27.8 13 Sur 27 Sur 0 967.8 0.8 47
2019-07-22 21:00:00 30.3 17 Sur 36 Sur 0 967 -0.8 37
2019-07-22 20:00:00 32.1 22 Sur 39 Sur 0 966.4 -1.8 32
2019-07-22 19:00:00 34.2 21 Sur 37 Sur 0 967 -1.6 28
2019-07-22 18:00:00 35.7 21 Sur 37 Sur 0 967.8 -1.6 25
2019-07-22 17:00:00 36.4 19 Sur 36 Sur 0 968.2 -1.9 26
2019-07-22 16:00:00 37.4 13 Sur 31 Sur 0 968.6 -1.7 24
2019-07-22 15:00:00 35.6 14 Sur 31 Sudoeste 0 969.4 -1 28
2019-07-22 14:00:00 34.3 16 Sur 32 Sur 0 970.1 -0.4 32
2019-07-22 13:00:00 32.8 13 Sur 26 Sur 0 970.3 -0.2 37
2019-07-22 12:00:00 31.3 12 Sur 22 Sudoeste 0 970.4 -0.2 42
2019-07-22 11:00:00 29.2 10 Sur 22 Sur 0 970.5 0 48
2019-07-22 10:00:00 26.7 10 Sur 18 Sur 0 970.5 0.3 57
2019-07-22 09:00:00 23.9 11 Sur 17 Sur 0 970.6 0.4 69
2019-07-22 08:00:00 22.1 9 Sur 15 Sur 0 970.5 0.2 76
2019-07-22 07:00:00 21.3 3 Sudoeste 6 Este 0 970.2 0.1 73
2019-07-22 06:00:00 22.4 3 Sudeste 14 Sur 0 970.2 -0.4 71
2019-07-22 05:00:00 23 10 Sur 20 Sur 0 970.3 -0.7 69
2019-07-22 04:00:00 23.3 4 Norte 19 Sur 0 970.1 -0.9 68
2019-07-22 03:00:00 -- -- -- -- -- -- -- -- --
2019-07-22 02:00:00 23.9 13 Sur 27 Sur 0 971 0.9 65
2019-07-22 01:00:00 24.3 17 Sur 33 Sur 0 971 1.9 62
2019-07-22 00:00:00 25.3 17 Sur 30 Sur 0 970.8 3 55
2019-07-21 23:00:00 26.7 18 Sur 36 Sudoeste 0 970.1 3 50
2019-07-21 22:00:00 29.3 19 Sur 35 Sudoeste 0 969.1 2 41
2019-07-21 21:00:00 -- -- -- -- -- -- -- -- --
2019-07-21 20:00:00 -- -- -- -- -- -- -- -- --
2019-07-21 19:00:00 -- -- -- -- -- -- -- -- --
2019-07-21 18:00:00 -- -- -- -- -- -- -- -- --
2019-07-21 17:00:00 -- -- -- -- -- -- -- -- --
2019-07-21 16:00:00 -- -- -- -- -- -- -- -- --
2019-07-21 15:00:00 -- -- -- -- -- -- -- -- --
2019-07-21 14:00:00 -- -- -- -- -- -- -- -- --
2019-07-21 13:00:00 -- -- -- -- -- -- -- -- --
2019-07-21 12:00:00 -- -- -- -- -- -- -- -- --
2019-07-21 11:00:00 -- -- -- -- -- -- -- -- --
2019-07-21 10:00:00 -- -- -- -- -- -- -- -- --
2019-07-21 09:00:00 -- -- -- -- -- -- -- -- --
2019-07-21 08:00:00 -- -- -- -- -- -- -- -- --
2019-07-21 07:00:00 -- -- -- -- -- -- -- -- --
2019-07-21 06:00:00 -- -- -- -- -- -- -- -- --
2019-07-21 05:00:00 -- -- -- -- -- -- -- -- --
2019-07-21 04:00:00 -- -- -- -- -- -- -- -- --
2019-07-21 03:00:00 -- -- -- -- -- -- -- -- --
2019-07-21 02:00:00 -- -- -- -- -- -- -- -- --
2019-07-21 01:00:00 -- -- -- -- -- -- -- -- --
2019-07-21 00:00:00 -- -- -- -- -- -- -- -- --
2019-07-20 23:00:00 -- -- -- -- -- -- -- -- --
2019-07-20 22:00:00 -- -- -- -- -- -- -- -- --
2019-07-20 21:00:00 -- -- -- -- -- -- -- -- --
2019-07-20 20:00:00 -- -- -- -- -- -- -- -- --
2019-07-20 19:00:00 -- -- -- -- -- -- -- -- --
2019-07-20 18:00:00 -- -- -- -- -- -- -- -- --
2019-07-20 17:00:00 -- -- -- -- -- -- -- -- --
2019-07-20 16:00:00 -- -- -- -- -- -- -- -- --
2019-07-20 15:00:00 -- -- -- -- -- -- -- -- --
2019-07-20 14:00:00 -- -- -- -- -- -- -- -- --
2019-07-20 13:00:00 -- -- -- -- -- -- -- -- --
2019-07-20 12:00:00 -- -- -- -- -- -- -- -- --
2019-07-20 11:00:00 -- -- -- -- -- -- -- -- --
2019-07-20 10:00:00 -- -- -- -- -- -- -- -- --
2019-07-20 09:00:00 -- -- -- -- -- -- -- -- --
2019-07-20 08:00:00 -- -- -- -- -- -- -- -- --
2019-07-20 07:00:00 -- -- -- -- -- -- -- -- --
2019-07-20 06:00:00 -- -- -- -- -- -- -- -- --
2019-07-20 05:00:00 -- -- -- -- -- -- -- -- --
2019-07-20 04:00:00 -- -- -- -- -- -- -- -- --
2019-07-20 03:00:00 -- -- -- -- -- -- -- -- --
2019-07-20 02:00:00 -- -- -- -- -- -- -- -- --
2019-07-20 01:00:00 -- -- -- -- -- -- -- -- --
2019-07-20 00:00:00 -- -- -- -- -- -- -- -- --
2019-07-19 23:00:00 -- -- -- -- -- -- -- -- --
2019-07-19 22:00:00 -- -- -- -- -- -- -- -- --
2019-07-19 21:00:00 -- -- -- -- -- -- -- -- --
2019-07-19 20:00:00 -- -- -- -- -- -- -- -- --
2019-07-19 19:00:00 -- -- -- -- -- -- -- -- --
2019-07-19 18:00:00 -- -- -- -- -- -- -- -- --
2019-07-19 17:00:00 -- -- -- -- -- -- -- -- --
2019-07-19 16:00:00 -- -- -- -- -- -- -- -- --
2019-07-19 15:00:00 -- -- -- -- -- -- -- -- --
2019-07-19 14:00:00 -- -- -- -- -- -- -- -- --
2019-07-19 13:00:00 -- -- -- -- -- -- -- -- --
2019-07-19 12:00:00 -- -- -- -- -- -- -- -- --
2019-07-19 11:00:00 -- -- -- -- -- -- -- -- --
2019-07-19 10:00:00 -- -- -- -- -- -- -- -- --
2019-07-19 09:00:00 -- -- -- -- -- -- -- -- --
2019-07-19 08:00:00 -- -- -- -- -- -- -- -- --
2019-07-19 07:00:00 -- -- -- -- -- -- -- -- --
2019-07-19 06:00:00 -- -- -- -- -- -- -- -- --
2019-07-19 05:00:00 -- -- -- -- -- -- -- -- --
2019-07-19 04:00:00 -- -- -- -- -- -- -- -- --
2019-07-19 03:00:00 -- -- -- -- -- -- -- -- --
2019-07-19 02:00:00 -- -- -- -- -- -- -- -- --
2019-07-19 01:00:00 -- -- -- -- -- -- -- -- --
2019-07-19 00:00:00 -- -- -- -- -- -- -- -- --